createdAt,value
2019-04-23T00:02:23.242Z,4.20
2019-04-23T00:05:16.934Z,4.30
2019-04-23T00:08:11.263Z,4.63
2019-04-23T00:10:59.135Z,5.20
2019-04-23T00:13:49.847Z,4.90
2019-04-23T00:16:40.894Z,3.93
2019-04-23T00:19:33.063Z,4.20
2019-04-23T00:22:43.818Z,4.40
2019-04-23T00:26:13.029Z,4.23
2019-04-23T00:29:07.434Z,4.63
2019-04-23T00:31:53.344Z,4.20
2019-04-23T00:34:51.442Z,4.30
2019-04-23T00:40:25.820Z,4.33
2019-04-23T00:43:15.104Z,4.27
2019-04-23T00:45:59.322Z,4.60
2019-04-23T00:48:59.195Z,4.50
2019-04-23T00:51:34.737Z,4.13
2019-04-23T00:54:22.548Z,4.10
2019-04-23T01:00:02.066Z,4.13
2019-04-23T01:02:53.335Z,4.20
2019-04-23T01:05:52.684Z,4.00
2019-04-23T01:08:30.217Z,4.40
2019-04-23T01:14:17.686Z,4.50
2019-04-23T01:17:09.907Z,4.30
2019-04-23T01:20:01.621Z,4.50
2019-04-23T01:22:33.506Z,4.63
2019-04-23T01:25:43.673Z,4.50
2019-04-23T01:28:48.295Z,4.63
2019-04-23T01:31:44.547Z,4.33
2019-04-23T01:34:31.414Z,4.60
2019-04-23T01:37:26.801Z,4.90
2019-04-23T01:40:13.594Z,4.40
2019-04-23T01:42:58.717Z,4.63
2019-04-23T01:45:50.202Z,4.70
2019-04-23T01:48:50.294Z,4.73
2019-04-23T01:51:42.351Z,4.10
2019-04-23T01:54:25.757Z,4.87
2019-04-23T01:57:21.501Z,4.33
2019-04-23T02:00:13.396Z,3.93
2019-04-23T02:03:06.072Z,4.23
2019-04-23T02:05:53.520Z,4.77
2019-04-23T02:08:39.923Z,4.97
2019-04-23T02:11:28.170Z,4.20
2019-04-23T02:17:10.308Z,4.87
2019-04-23T02:20:14.439Z,5.13
2019-04-23T02:23:14.912Z,4.57
2019-04-23T02:28:46.289Z,4.67
2019-04-23T02:34:42.948Z,4.77
2019-04-23T02:48:54.564Z,4.47
2019-04-23T02:51:29.142Z,4.50
2019-04-23T02:54:33.132Z,4.57
2019-04-23T02:57:08.885Z,4.77
2019-04-23T03:00:16.140Z,4.60
2019-04-23T03:05:45.976Z,4.90
2019-04-23T03:08:36.372Z,4.63
2019-04-23T03:11:25.850Z,4.70
2019-04-23T03:17:13.095Z,4.47
2019-04-23T03:23:47.137Z,4.50
2019-04-23T03:26:42.147Z,4.80
2019-04-23T03:40:21.114Z,5.03
2019-04-23T03:43:26.264Z,4.83
2019-04-23T03:46:16.035Z,4.37
2019-04-23T03:51:42.881Z,5.53
2019-04-23T03:54:42.284Z,5.47
2019-04-23T03:57:30.925Z,5.17
2019-04-23T04:00:31.642Z,4.70
2019-04-23T04:03:10.361Z,5.53
2019-04-23T04:05:58.243Z,5.90
2019-04-23T04:11:33.733Z,5.70
2019-04-23T04:14:32.205Z,5.63
2019-04-23T04:17:15.911Z,5.57
2019-04-23T04:20:11.106Z,6.27
2019-04-23T04:23:19.506Z,5.93
2019-04-23T04:25:49.896Z,6.20
2019-04-23T04:31:36.895Z,6.10
2019-04-23T04:40:07.866Z,5.83
2019-04-23T04:43:00.138Z,6.37
2019-04-23T04:48:37.729Z,6.43
2019-04-23T04:51:28.979Z,7.33
2019-04-23T04:57:02.626Z,5.67
2019-04-23T05:00:06.799Z,6.03
2019-04-23T05:03:18.047Z,5.90
2019-04-23T05:08:29.021Z,6.50
2019-04-23T05:14:08.424Z,6.73
2019-04-23T05:19:57.423Z,6.43
2019-04-23T05:22:40.779Z,6.97
2019-04-23T05:25:16.926Z,7.03
2019-04-23T05:31:05.736Z,7.07
2019-04-23T05:34:00.298Z,6.70
2019-04-23T05:39:35.376Z,6.90
2019-04-23T05:42:26.069Z,7.60
2019-04-23T05:45:16.400Z,7.30
2019-04-23T05:48:12.974Z,6.93
2019-04-23T05:56:39.709Z,6.70
2019-04-23T05:59:29.927Z,7.20
2019-04-23T06:02:23.208Z,6.90
2019-04-23T06:05:14.750Z,6.77
2019-04-23T06:08:09.425Z,7.57
2019-04-23T06:10:55.602Z,7.17
2019-04-23T06:13:48.078Z,7.23
2019-04-23T06:16:35.645Z,8.23
2019-04-23T06:19:21.533Z,8.20
2019-04-23T06:25:22.094Z,7.20
2019-04-23T06:28:01.798Z,7.20
2019-04-23T06:30:56.080Z,7.23
2019-04-23T06:33:44.332Z,7.60
2019-04-23T06:36:33.345Z,7.17
2019-04-23T06:39:26.256Z,8.07
2019-04-23T06:42:14.076Z,8.17
2019-04-23T06:45:00.999Z,8.27
2019-04-23T06:48:02.257Z,7.60
2019-04-23T06:50:48.817Z,8.50
2019-04-23T06:53:37.443Z,8.10
2019-04-23T06:56:33.461Z,7.90
2019-04-23T06:59:19.969Z,7.50
2019-04-23T07:02:11.801Z,8.03
2019-04-23T07:05:06.618Z,7.13
2019-04-23T07:08:04.291Z,8.37
2019-04-23T07:10:40.604Z,7.97
2019-04-23T07:13:44.909Z,7.87
2019-04-23T07:16:34.869Z,7.80
2019-04-23T07:19:17.724Z,6.97
2019-04-23T07:22:08.147Z,8.20
2019-04-23T07:24:58.036Z,7.80
2019-04-23T07:27:40.890Z,7.70
2019-04-23T07:30:32.924Z,7.60
2019-04-23T07:33:31.106Z,8.23
2019-04-23T07:36:17.238Z,7.93
2019-04-23T07:42:35.356Z,7.70
2019-04-23T07:45:54.836Z,7.87
2019-04-23T07:48:34.106Z,7.87
2019-04-23T07:51:44.858Z,8.33
2019-04-23T07:54:22.843Z,7.70
2019-04-23T08:00:00.730Z,7.63
2019-04-23T08:03:01.898Z,7.53
2019-04-23T08:05:39.701Z,7.30
2019-04-23T08:08:30.314Z,8.10
2019-04-23T08:11:33.065Z,7.93
2019-04-23T08:14:08.368Z,8.77
2019-04-23T08:17:04.326Z,7.93
2019-04-23T08:20:03.068Z,8.50
2019-04-23T08:22:45.800Z,8.50
2019-04-23T08:26:10.137Z,8.90
2019-04-23T08:29:04.101Z,8.43
2019-04-23T08:31:27.473Z,7.50
2019-04-23T08:34:17.135Z,9.03
2019-04-23T08:37:06.435Z,8.97
2019-04-23T08:39:47.058Z,8.60
2019-04-23T08:42:45.747Z,8.60
2019-04-23T08:45:53.615Z,9.00
2019-04-23T08:48:50.283Z,8.27
2019-04-23T08:51:45.877Z,9.30
2019-04-23T08:54:47.023Z,8.80
2019-04-23T09:00:09.226Z,9.50
2019-04-23T09:03:00.552Z,9.00
2019-04-23T09:05:56.232Z,8.67
2019-04-23T09:08:37.457Z,9.40
2019-04-23T09:11:44.122Z,9.50
2019-04-23T09:14:08.759Z,9.00
2019-04-23T09:17:28.933Z,9.80
2019-04-23T09:20:18.542Z,9.83
2019-04-23T09:22:50.345Z,9.80
2019-04-23T09:25:47.722Z,9.60
2019-04-23T09:28:39.697Z,8.87
2019-04-23T09:38:05.519Z,10.93
2019-04-23T09:47:40.931Z,9.23
2019-04-23T09:50:33.100Z,9.63
2019-04-23T09:56:06.716Z,10.57
2019-04-23T09:59:02.319Z,11.60
2019-04-23T10:01:45.172Z,11.17
2019-04-23T10:04:27.901Z,10.57
2019-04-23T10:07:16.452Z,9.73
2019-04-23T10:09:55.690Z,9.83
2019-04-23T10:12:46.182Z,11.30
2019-04-23T10:15:40.392Z,11.20
2019-04-23T10:18:26.852Z,9.53
2019-04-23T10:20:57.321Z,10.13
2019-04-23T10:23:47.462Z,9.33
2019-04-23T10:26:37.941Z,10.00
2019-04-23T10:29:13.857Z,10.43
2019-04-23T10:32:03.848Z,10.57
2019-04-23T10:35:05.299Z,9.50
2019-04-23T10:37:50.943Z,10.20
2019-04-23T10:40:39.887Z,10.20
2019-04-23T10:43:25.132Z,9.43
2019-04-23T10:46:53.080Z,9.13
2019-04-23T10:52:53.753Z,10.67
2019-04-23T10:55:44.728Z,9.67
2019-04-23T10:58:31.852Z,9.80
2019-04-23T11:01:20.841Z,9.80
2019-04-23T11:13:25.262Z,10.20
2019-04-23T11:16:40.038Z,9.67
2019-04-23T11:21:58.441Z,8.33
2019-04-23T11:24:53.402Z,9.67
2019-04-23T11:27:36.229Z,9.57
2019-04-23T11:47:23.196Z,8.87
2019-04-23T11:50:13.972Z,8.53
2019-04-23T11:53:00.278Z,8.60
2019-04-23T11:58:37.596Z,8.70
2019-04-23T12:01:49.221Z,8.83
2019-04-23T12:08:01.076Z,8.13
2019-04-23T12:14:30.535Z,8.27
2019-04-23T12:17:28.944Z,8.37
2019-04-23T12:20:03.343Z,8.20
2019-04-23T12:22:58.768Z,7.40
2019-04-23T12:28:40.833Z,8.47
2019-04-23T12:31:28.636Z,8.10
2019-04-23T12:33:57.692Z,7.33
2019-04-23T12:36:48.378Z,7.93
2019-04-23T12:39:27.051Z,8.50
2019-04-23T12:42:08.577Z,8.70
2019-04-23T12:44:52.544Z,7.90
2019-04-23T12:47:53.642Z,8.37
2019-04-23T12:50:45.040Z,8.13
2019-04-23T12:56:08.839Z,8.70
2019-04-23T12:58:51.584Z,8.50
2019-04-23T13:01:55.897Z,8.63
2019-04-23T13:04:44.904Z,8.47
2019-04-23T13:07:40.117Z,8.00
2019-04-23T13:10:21.076Z,9.17
2019-04-23T13:13:16.671Z,8.50
2019-04-23T13:16:05.646Z,9.07
2019-04-23T13:18:50.681Z,7.73
2019-04-23T13:24:54.169Z,9.20
2019-04-23T13:27:57.259Z,8.17
2019-04-23T13:33:39.065Z,8.80
2019-04-23T13:39:17.962Z,9.30
2019-04-23T13:42:07.631Z,7.60
2019-04-23T13:44:56.015Z,8.00
2019-04-23T13:47:53.237Z,7.43
2019-04-23T13:56:25.227Z,7.70
2019-04-23T13:59:18.830Z,8.10
2019-04-23T14:02:07.736Z,8.60
2019-04-23T14:05:12.346Z,8.03
2019-04-23T14:08:02.655Z,8.40
2019-04-23T14:10:55.719Z,7.67
2019-04-23T14:16:48.812Z,8.53
2019-04-23T14:19:16.492Z,7.90
2019-04-23T14:22:43.391Z,7.77
2019-04-23T14:25:07.818Z,8.53
2019-04-23T14:28:11.636Z,7.93
2019-04-23T14:30:53.414Z,7.70
2019-04-23T14:34:00.086Z,8.03
2019-04-23T14:42:20.971Z,8.37
2019-04-23T14:45:23.209Z,7.60
2019-04-23T14:47:59.094Z,7.30
2019-04-23T14:51:09.867Z,7.70
2019-04-23T14:53:40.533Z,8.50
2019-04-23T14:56:28.795Z,7.80
2019-04-23T15:01:36.090Z,7.97
2019-04-23T15:04:28.628Z,8.50
2019-04-23T15:10:18.604Z,8.33
2019-04-23T15:13:01.830Z,8.83
2019-04-23T15:15:55.642Z,7.80
2019-04-23T15:19:21.694Z,8.93
2019-04-23T15:25:06.983Z,7.13
2019-04-23T15:27:29.583Z,7.70
2019-04-23T15:30:29.507Z,7.17
2019-04-23T15:33:35.261Z,7.13
2019-04-23T15:36:32.520Z,7.97
2019-04-23T15:39:21.074Z,7.80
2019-04-23T15:42:09.295Z,7.17
2019-04-23T15:44:49.050Z,7.90
2019-04-23T15:47:45.740Z,7.77
2019-04-23T15:50:32.231Z,8.20
2019-04-23T15:53:11.230Z,7.97
2019-04-23T15:56:18.280Z,7.53
2019-04-23T15:59:25.923Z,7.73
2019-04-23T16:01:39.481Z,7.60
2019-04-23T16:04:15.340Z,7.73
2019-04-23T16:06:45.693Z,8.03
2019-04-23T16:10:12.604Z,8.13
2019-04-23T16:12:56.336Z,8.00
2019-04-23T16:15:43.377Z,8.37
2019-04-23T16:19:07.597Z,8.10
2019-04-23T16:24:51.817Z,8.60
2019-04-23T16:27:48.993Z,8.27
2019-04-23T16:33:20.159Z,8.17
2019-04-23T16:38:58.613Z,8.00
2019-04-23T16:41:54.619Z,18.70
2019-04-23T16:44:46.498Z,14.57
2019-04-23T16:47:28.146Z,35.53
2019-04-23T16:50:56.162Z,12.57
2019-04-23T16:53:20.947Z,10.43
2019-04-23T16:56:13.412Z,10.60
2019-04-23T16:59:02.436Z,11.20
2019-04-23T17:01:52.373Z,37.07
2019-04-23T17:04:39.272Z,35.53
2019-04-23T17:07:27.270Z,18.70
2019-04-23T17:10:23.242Z,11.17
2019-04-23T17:16:06.709Z,11.50
2019-04-23T17:21:25.169Z,8.80
2019-04-23T17:24:21.104Z,8.90
2019-04-23T17:27:16.608Z,8.13
2019-04-23T17:29:57.838Z,7.70
2019-04-23T17:32:57.223Z,8.13
2019-04-23T17:36:12.086Z,7.60
2019-04-23T17:38:51.432Z,8.43
2019-04-23T17:42:01.007Z,7.40
2019-04-23T17:45:09.968Z,7.23
2019-04-23T17:47:52.413Z,8.10
2019-04-23T17:53:54.440Z,8.80
2019-04-23T17:56:55.848Z,8.40
2019-04-23T18:00:25.495Z,7.83
2019-04-23T18:05:37.390Z,8.33
2019-04-23T18:08:27.133Z,8.37
2019-04-23T18:11:16.212Z,8.40
2019-04-23T18:17:07.558Z,8.83
2019-04-23T18:20:14.870Z,8.70
2019-04-23T18:26:02.096Z,8.97
2019-04-23T18:29:00.324Z,9.33
2019-04-23T18:31:59.740Z,9.50
2019-04-23T18:35:04.279Z,8.83
2019-04-23T18:40:21.582Z,8.57
2019-04-23T18:43:24.004Z,9.20
2019-04-23T18:46:08.701Z,9.30
2019-04-23T18:51:34.476Z,8.87
2019-04-23T18:54:22.359Z,10.20
2019-04-23T18:57:12.644Z,8.90
2019-04-23T19:00:07.481Z,9.63
2019-04-23T19:03:21.152Z,9.23
2019-04-23T19:06:23.874Z,8.93
2019-04-23T19:09:23.883Z,9.73
2019-04-23T19:12:34.898Z,10.00
2019-04-23T19:15:21.550Z,11.37
2019-04-23T19:17:56.495Z,10.30
2019-04-23T19:20:37.925Z,10.67
2019-04-23T19:23:16.372Z,9.57
2019-04-23T19:29:11.574Z,10.10
2019-04-23T19:34:46.913Z,9.50
2019-04-23T19:37:49.478Z,9.57
2019-04-23T19:40:37.999Z,10.60
2019-04-23T19:43:19.847Z,9.70
2019-04-23T19:46:33.959Z,10.50
2019-04-23T19:49:05.752Z,9.50
2019-04-23T19:51:56.732Z,10.03
2019-04-23T19:54:52.614Z,9.47
2019-04-23T19:57:49.282Z,9.53
2019-04-23T20:00:31.189Z,10.23
2019-04-23T20:03:26.648Z,9.93
2019-04-23T20:14:41.706Z,9.87
2019-04-23T20:20:18.222Z,10.03
2019-04-23T20:23:13.266Z,10.53
2019-04-23T20:26:15.648Z,9.40
2019-04-23T20:38:03.038Z,9.20
2019-04-23T20:40:33.017Z,9.37
2019-04-23T20:43:18.959Z,9.50
2019-04-23T20:46:06.570Z,11.23
2019-04-23T20:49:00.556Z,10.20
2019-04-23T21:00:43.247Z,10.80
2019-04-23T21:03:52.244Z,9.27
2019-04-23T21:06:47.039Z,9.27
2019-04-23T21:12:04.805Z,9.17
2019-04-23T21:15:05.411Z,8.90
2019-04-23T21:20:53.429Z,9.30
2019-04-23T21:26:20.090Z,9.27
2019-04-23T21:29:09.125Z,9.70
2019-04-23T21:32:08.818Z,9.70
2019-04-23T21:34:56.444Z,9.30
2019-04-23T21:37:55.936Z,9.87
2019-04-23T21:41:00.923Z,9.20
2019-04-23T21:46:36.815Z,9.47
2019-04-23T21:49:25.130Z,11.00
2019-04-23T21:52:11.531Z,9.80
2019-04-23T21:55:03.707Z,9.70
2019-04-23T21:58:01.365Z,9.97
2019-04-23T22:00:51.952Z,9.23
2019-04-23T22:04:01.052Z,9.70
2019-04-23T22:06:39.597Z,10.30
2019-04-23T22:20:43.692Z,10.90
2019-04-23T22:23:48.243Z,10.00
2019-04-23T22:26:34.711Z,10.13
2019-04-23T22:29:18.365Z,10.07
2019-04-23T22:32:00.157Z,9.73
2019-04-23T22:34:57.199Z,9.43
2019-04-23T22:37:53.917Z,10.17
2019-04-23T22:40:36.248Z,10.60
2019-04-23T22:55:17.547Z,9.73
2019-04-23T23:01:23.748Z,10.60
2019-04-23T23:04:15.182Z,10.07
2019-04-23T23:10:00.561Z,10.30
2019-04-23T23:12:51.304Z,10.60
2019-04-23T23:21:13.392Z,11.27
2019-04-23T23:27:02.412Z,10.47
2019-04-23T23:30:01.065Z,10.23
2019-04-23T23:32:40.480Z,10.27
2019-04-23T23:35:28.319Z,10.30
2019-04-23T23:38:25.526Z,10.07
2019-04-23T23:44:20.925Z,9.87
2019-04-23T23:47:01.715Z,10.43
2019-04-23T23:49:48.526Z,9.87
2019-04-23T23:52:40.275Z,10.30
2019-04-23T23:55:07.861Z,10.17
2019-04-23T23:58:02.911Z,9.60
